x

8447387 - Borden Flats Light At Fall River, Ma (bltm3) Weather Station

4:54 - Sun 11th Dec 2016 All times are EST. -5 hours from GMT.

  • Wind
    3mph, 5mph gusts
  • Air Temp 24°f
  • Sea Pressure 1032.5mb
  • 8447387 - Borden Flats Light At Fall River, Ma
  • 8447387 - Borden Flats Light At Fall River, Ma

More Historic Weather Station data

Upgrade to MSW Pro to gain access to the past 30 days of data for over 8000 Wavebouys and Weather Stations around the globe.

Join Pro

Comparision Forecast

View Surf forecast
   
dim. 12/11 4:54 3 5 mph 1032.5mb 24f
4:48 3 5 mph 1032.4mb 24f
4:42 3 5 mph 1032.2mb 24f
4:36 3 5 mph 1032.2mb 24f
4:30 2 3 mph 1032.1mb 24f
4:24 3 5 mph 1032.1mb 24f
4:18 2 3 mph 1032.1mb 24f
4:12 2 3 mph 1032mb 24f
4:06 2 3 mph 1032mb 24f
4:00 3 5 mph 1032mb 24f
3:54 5
mph
1032mb 24f
3:48 6
mph
1031.9mb 24f
3:42 6 7 mph 1031.9mb 24f
3:36 6
mph
1031.9mb 25f
3:30 3 5 mph 1032mb 24f
3:24 3
mph
1032mb 24f
3:18 3
mph
1032mb 24f
3:12 2 3 mph 1032mb 24f
3:06 3 5 mph 1031.9mb 24f
3:00 3 5 mph 1031.8mb 24f
2:54 3 5 mph 1031.8mb 24f
2:48 2 3 mph 1031.9mb 24f
2:42 2 5 mph 1031.9mb 25f
2:36 3 5 mph 1031.9mb 25f
2:30 3 5 mph 1032mb 24f
2:24 3 5 mph 1031.9mb 24f
2:18 2 5 mph 1032mb 24f
2:12 2 5 mph 1032mb 25f
2:06 1 3 mph 1031.9mb 24f
2:00 3 5 mph 1031.7mb 24f
1:54 2
mph
1031.7mb 25f
1:48 1 2 mph 1031.6mb -
1:42 2 3 mph 1031.5mb -
1:36 2
mph
1031.5mb -
1:30 1 2 mph 1031.5mb 25f
1:24  -  1 mph 1031.5mb 25f
1:18  -  2 mph 1031.5mb 25f
1:12  -  1 mph 1031.4mb 25f
1:06 2
mph
1031.3mb 24f
1:00 2 3 mph 1031.3mb 24f
12:54 2
mph
1031.2mb 24f
12:48 2 3 mph 1031.2mb 24f
12:42 1 2 mph 1031.1mb 24f
12:36 2
mph
1031.1mb 24f
12:30 2 3 mph 1031.1mb 24f
12:24 2 3 mph 1031mb 24f
12:18 2 5 mph 1031.1mb 24f
12:12 5 6 mph 1031mb 25f
12:06 3 5 mph 1030.9mb 25f
12:00 3 5 mph 1031mb 25f
sam. 12/10 11:54 3 5 mph 1031mb 25f
11:48 3 5 mph 1031.1mb 25f
11:42 5 6 mph 1031.1mb 25f
11:36 5 6 mph 1031.1mb 25f
11:30 5 6 mph 1031.1mb 25f
11:24 2 3 mph 1031.2mb 25f
11:18 2 5 mph 1031.1mb 25f
11:12 5 7 mph 1031.2mb 25f
11:06 5 6 mph 1031.2mb 25f
11:00 3 5 mph 1031.1mb 25f
10:54 2 3 mph 1031.1mb 25f
10:48 3 5 mph 1031.1mb 25f
10:42 2
mph
1031.1mb 25f
10:36 5 6 mph 1031.1mb 25f
10:30  -  mph 1031mb 26f
10:24  -  mph 1031mb 26f
10:18 3 5 mph 1030.9mb 26f
10:12 3 6 mph 1030.9mb 26f
10:06 5 6 mph 1030.8mb 26f
10:00 5 7 mph 1030.8mb 26f
9:54 5 6 mph 1030.7mb 26f
9:48 5 6 mph 1030.7mb 26f
9:42 3 6 mph 1030.6mb 27f
9:36 3 5 mph 1030.6mb 27f
9:30 3 5 mph 1030.5mb 27f
9:24 3 5 mph 1030.4mb 27f
9:18 2 5 mph 1030.3mb 27f
9:12 3 5 mph 1030.3mb 27f
9:06 2 5 mph 1030.2mb 27f
9:00 3 6 mph 1030.2mb 28f
8:54 3 6 mph 1030.2mb 28f
8:48 6
mph
1030.1mb 28f
8:42 3 6 mph 1030.1mb 28f
8:36 5 7 mph 1030mb 28f
8:30 3 6 mph 1029.9mb 28f
8:24 3 6 mph 1029.9mb 28f
8:18 5 6 mph 1029.8mb 28f
8:12 6 7 mph 1029.8mb 28f
8:06 6 7 mph 1029.8mb 28f
8:00 7 8 mph 1029.7mb 29f
7:54 8 10 mph 1029.6mb 29f
7:48 11 14 mph 1029.6mb 29f
7:42 13 16 mph 1029.5mb 29f
7:36 8 10 mph 1029.4mb 29f
7:30 14 17 mph 1029.2mb 29f
7:24 14 17 mph 1029.2mb 29f
7:18 15 18 mph 1029mb 30f
7:12 13 16 mph 1029mb 30f
7:06 15 18 mph 1028.9mb 30f
7:00 14 16 mph 1028.9mb 30f
6:54 15 18 mph 1028.8mb 30f
6:48 16 20 mph 1028.8mb 30f
6:42 16 20 mph 1028.8mb 30f
6:36 16 20 mph 1028.7mb 31f
6:30 15 18 mph 1028.6mb 30f
6:24 16 18 mph 1028.5mb 31f
6:18 15 18 mph 1028.5mb 31f
6:12 16 21 mph 1028.4mb 30f
6:06 15 18 mph 1028.3mb 31f
6:00 14 16 mph 1028.3mb 31f
5:54 13 16 mph 1028.3mb 31f
5:48 13 16 mph 1028.2mb 30f
5:42 13 16 mph 1028.2mb 30f
5:36 11 15 mph 1028.1mb 30f
5:30 11 16 mph 1028mb 30f
5:24 11 14 mph 1028mb 30f
5:18 9 14 mph 1027.9mb 30f
5:12 9 11 mph 1027.8mb 30f
5:06 10 11 mph 1027.7mb 30f
5:00 10 14 mph 1027.6mb 30f
4:54 11 14 mph 1027.5mb 30f
4:48 11 16 mph 1027.4mb 30f
4:42 14 16 mph 1027.3mb 30f
4:36 13 16 mph 1027.3mb 30f
4:30 11 14 mph 1027.2mb 31f
4:24 13 15 mph 1027.2mb 31f
4:18 11 14 mph 1027.1mb 31f
4:12 13 15 mph 1027mb 31f
4:06 16 21 mph 1026.9mb 31f
4:00 16 22 mph 1026.8mb 31f
3:54 16 22 mph 1026.8mb 31f
3:48 14 18 mph 1026.7mb 31f
3:42 14 18 mph 1026.6mb 31f
3:36 18 25 mph 1026.5mb 31f
3:30 13 17 mph 1026.5mb 31f
3:24 11 17 mph 1026.4mb 31f
3:18 15 21 mph 1026.3mb 31f
3:12 16 20 mph 1026.2mb 31f
3:06 17 22 mph 1026.1mb 32f
3:00 16 23 mph 1026.1mb 31f
2:54 15 20 mph 1026mb 32f
2:48 17 23 mph 1025.8mb 32f
2:42 16 22 mph 1025.8mb 32f
2:36 13 15 mph 1025.8mb 31f
2:30 16 22 mph 1025.8mb 32f
2:24 14 18 mph 1025.8mb 31f
2:18 14 17 mph 1025.8mb 32f
2:12 16 22 mph 1025.6mb 32f
2:06 17 22 mph 1025.6mb 31f
2:00 15 18 mph 1025.5mb 32f
1:54 17 23 mph 1025.4mb 31f
1:48 20 24 mph 1025.3mb 32f
1:42 14 18 mph 1025.3mb 32f
1:36 13 17 mph 1025.3mb 31f
1:30 13 16 mph 1025.4mb 31f
1:24 13 16 mph 1025.3mb 31f
1:18 17 21 mph 1025.4mb 31f
1:12 18 24 mph 1025.4mb 31f
1:06 15 20 mph 1025.5mb 30f
1:00 17 22 mph 1025.5mb 31f
12:54 18 22 mph 1025.5mb 31f
12:48 15 20 mph 1025.6mb 31f
12:42 17 22 mph 1025.6mb 31f
12:36 17 23 mph 1025.7mb 30f
12:30 17 22 mph 1025.8mb 30f
12:24 21 26 mph 1025.7mb 30f
12:18 15 22 mph 1025.7mb 29f
12:12 17 22 mph 1025.7mb 29f
12:06 18 22 mph 1025.7mb 29f
12:00 16 22 mph 1025.7mb 30f
11:54 16 21 mph 1025.7mb 29f
11:48 14 21 mph 1025.8mb 31f
11:42 11 15 mph 1025.9mb 31f
11:36 17 23 mph 1026.1mb 30f
11:30 16 20 mph 1026.1mb 31f
11:24 15 18 mph 1026.3mb 30f
11:18 15 20 mph 1026.4mb 29f
11:12 20 23 mph 1026.4mb 28f
11:06 17 24 mph 1026.5mb 29f
11:00 21 24 mph 1026.4mb 29f
10:54 15 17 mph 1026.5mb 29f
10:48 13 18 mph 1026.6mb 29f
10:42 13 22 mph 1026.7mb 28f
10:36 14 18 mph 1026.9mb 28f
10:30 11 14 mph 1027mb 28f
10:24 11 16 mph 1027.1mb 28f
10:18 16 21 mph 1027.2mb 27f
10:12 13 17 mph 1027.4mb 27f
10:06 13 16 mph 1027.5mb 28f
10:00 14 18 mph 1027.5mb 28f
9:54 14 21 mph 1027.5mb 27f
9:48 15 18 mph 1027.5mb 27f
9:42 13 16 mph 1027.6mb 26f
9:36 15 21 mph 1027.5mb 26f
9:30 18 24 mph 1027.5mb 26f
9:24 18 24 mph 1027.4mb 26f
9:18 13 17 mph 1027.4mb 26f
9:12 17 23 mph 1027.4mb 25f
9:06 14 20 mph 1027.3mb 27f
9:00 14 21 mph 1027.2mb 26f
8:54 15 23 mph 1027.2mb 26f
8:48 17 22 mph 1027.2mb 25f
8:42 15 18 mph 1027.2mb 25f
8:36 14 17 mph 1027.2mb 26f
8:30 14 17 mph 1027.1mb 24f
8:24 14 17 mph 1027mb 24f
8:18 14 17 mph 1027mb 25f
8:12 14 17 mph 1026.9mb 25f
8:06 10 14 mph 1027mb 24f
8:00 10 15 mph 1027mb 24f
7:54 10 15 mph 1027mb 24f
7:48 10 16 mph 1026.9mb 24f
7:42 11 14 mph 1026.7mb 24f
7:36 11 14 mph 1026.7mb 24f
7:30 10 14 mph 1026.6mb 24f
7:24 10 13 mph 1026.6mb 24f
7:18 6 9 mph 1026.5mb 24f
7:12 8 11 mph 1026.5mb 24f
7:06 9 14 mph 1026.4mb 24f
7:00 9 13 mph 1026.4mb 24f
6:54 9 14 mph 1026.3mb 24f
6:48 10 14 mph 1026.3mb 24f
6:42 9 13 mph 1026.2mb 24f
6:36 9 14 mph 1026.2mb 24f
6:30 11 17 mph 1026.1mb 24f
6:24 13 18 mph 1026.1mb 24f
6:18 15 18 mph 1026mb 25f
6:12 11 18 mph 1025.9mb 24f
6:06 13 17 mph 1025.7mb 25f
6:00 11 16 mph 1025.7mb 25f
5:54 13 16 mph 1025.7mb 25f
5:48 10 14 mph 1025.7mb 25f
5:42 13 16 mph 1025.5mb 25f
5:36 11 16 mph 1025.4mb 25f
5:30 13 16 mph 1025.2mb 25f
5:24 10 14 mph 1025.2mb 25f
5:18 11 16 mph 1025.1mb 25f
5:12 10 15 mph 1025.1mb 25f
5:06 14 16 mph 1025.1mb 25f
5:00 15 20 mph 1025mb 25f
4:54 11 17 mph 1025mb 25f
4:48 13 18 mph 1025mb 26f
4:42 10 14 mph 1024.9mb 25f
4:36 11 15 mph 1024.8mb 26f
4:30 15 18 mph 1024.7mb 26f
4:24 14 17 mph 1024.6mb 26f
4:18 10 14 mph 1024.6mb 26f
4:12 14 18 mph 1024.6mb 26f
4:06 9 11 mph 1024.7mb 26f
4:00 10 14 mph 1024.8mb 26f
3:54 9 13 mph 1024.7mb 26f
3:48 13 16 mph 1024.7mb 26f
3:42 10 14 mph 1024.8mb 26f
3:36 10 17 mph 1024.7mb 26f
3:30 10 13 mph 1024.7mb 26f
3:24 11 15 mph 1024.5mb 26f
3:18 11 14 mph 1024.4mb 26f
3:12 11 16 mph 1024.5mb 26f
3:06 10 14 mph 1024.4mb 26f
3:00 7 9 mph 1024.3mb 26f
2:54 10 16 mph 1024.1mb 26f
2:48 10 13 mph 1024.2mb 26f
2:42 10 14 mph 1024mb 26f
2:36 11 17 mph 1023.8mb 26f
2:30 10 14 mph 1023.7mb 26f
2:24 9 13 mph 1023.9mb 26f
2:18 10 15 mph 1023.8mb 27f
2:12 9 14 mph 1023.6mb 26f
2:06 10 14 mph 1023.5mb 26f
2:00 9 14 mph 1023.6mb 27f
1:54 11 17 mph 1023.5mb 27f
1:48 11 17 mph 1023.5mb 27f
1:42 8 10 mph 1023.4mb 27f
1:36 11 15 mph 1023.3mb 27f
1:30 9 13 mph 1023.3mb 28f
1:24 13 17 mph 1023.3mb 28f
1:18 11 16 mph 1023.2mb 28f
1:12 11 16 mph 1023.2mb 28f
1:06 10 14 mph 1023.2mb 28f
1:00 14 18 mph 1023.2mb 28f
12:54 15 21 mph 1023.1mb 28f
12:48 13 17 mph 1023.2mb -
12:42 14 21 mph 1023.1mb -
12:36 14 17 mph 1023.1mb -
12:30 17 20 mph 1023mb 28f
12:24 14 18 mph 1023mb 28f
12:18 14 17 mph 1023mb 29f
12:12 16 20 mph 1023mb 28f
12:06 16 21 mph 1022.9mb 28f
12:00 20 24 mph 1022.9mb 29f
ven. 12/09 11:54 17 23 mph 1022.9mb 29f
11:48 17 22 mph 1022.9mb 29f
11:42 16 20 mph 1022.8mb 29f
11:36 16 21 mph 1022.8mb 29f
11:30 15 20 mph 1022.8mb 29f
11:24 15 23 mph 1022.8mb 29f
11:18 14 20 mph 1022.8mb 29f
11:12 14 16 mph 1022.8mb 29f
11:06 14 18 mph 1022.7mb 29f
11:00 14 17 mph 1022.7mb 29f
10:54 13 16 mph 1022.7mb 29f
10:48 14 16 mph 1022.5mb 29f
10:42 14 16 mph 1022.5mb 29f
10:36 16 21 mph 1022.4mb 29f
10:30 14 18 mph 1022.4mb 29f
10:24 14 17 mph 1022.4mb 29f
10:18 14 16 mph 1022.4mb 29f
10:12 14 18 mph 1022.3mb 29f
10:06 14 17 mph 1022.3mb 29f
10:00 11 15 mph 1022.4mb 29f
9:54 14 18 mph 1022.3mb 30f
9:48 16 20 mph 1022.3mb 29f
9:42 16 20 mph 1022.2mb 30f
9:36 15 18 mph 1022.1mb 30f
9:30 14 16 mph 1022.1mb 29f
9:24 14 16 mph 1022.1mb 30f
9:18 16 21 mph 1022.1mb 30f
9:12 18 22 mph 1022mb 30f
9:06 18 22 mph 1021.9mb 30f
9:00 18 22 mph 1021.9mb 30f
8:54 16 21 mph 1021.9mb 30f
8:48 16 20 mph 1021.9mb 30f
8:42 16 21 mph 1021.8mb 31f
8:36 18 23 mph 1021.8mb 31f
8:30 17 21 mph 1021.8mb 31f
8:24 15 20 mph 1021.8mb 31f
8:18 17 21 mph 1021.7mb 31f
8:12 21 25 mph 1021.5mb 31f
8:06 22 24 mph 1021.4mb 31f
8:00 18 23 mph 1021.5mb 31f
7:54 15 18 mph 1021.5mb 31f
7:48 18 23 mph 1021.3mb 31f
7:42 18 23 mph 1021.1mb 31f
7:36 22 25 mph 1021mb 32f
7:30 20 26 mph 1021mb 32f
7:24 18 24 mph 1020.9mb 32f
7:18 21 29 mph 1020.8mb 32f
7:12 18 23 mph 1020.7mb 32f
7:06 21 26 mph 1020.5mb 32f
7:00 23 30 mph 1020.4mb 33f
6:54 23 29 mph 1020.3mb 32f
6:48 21 26 mph 1020.2mb 33f
6:42 21 28 mph 1020.1mb 33f
6:36 17 23 mph 1020mb 33f
6:30 16 20 mph 1020mb 33f
6:24 22 28 mph 1019.8mb 33f
6:18 21 24 mph 1019.7mb 33f
6:12 21 26 mph 1019.6mb 33f
6:06 21 25 mph 1019.4mb 34f
6:00 20 28 mph 1019.2mb 34f
5:54 22 26 mph 1019mb 34f
5:48 21 26 mph 1018.9mb 34f
5:42 20 24 mph 1018.8mb 34f
5:36 16 20 mph 1018.7mb 35f
5:30 20 25 mph 1018.6mb 35f
5:24 24 36 mph 1018.4mb 35f
5:18 20 28 mph 1018.4mb 35f
5:12 21 32 mph 1018.4mb 35f
5:06 17 24 mph 1018.4mb 35f
5:00 22 28 mph 1018.1mb 35f
4:54 21 25 mph 1018.2mb 35f
4:48 22 29 mph 1018.1mb 35f
4:42 22 28 mph 1018mb 35f
4:36 23 30 mph 1017.7mb 35f
4:30 24 29 mph 1017.7mb 35f
4:24 18 23 mph 1017.7mb 35f
4:18 22 25 mph 1017.5mb 36f
4:12 16 21 mph 1017.4mb 35f
4:06 20 26 mph 1017.2mb 37f
4:00 21 30 mph 1017mb 36f
3:54 20 22 mph 1016.9mb 36f
3:48 17 22 mph 1016.9mb 36f
3:42 21 30 mph 1016.8mb 36f
3:36 24 30 mph 1016.6mb 36f
3:30 18 24 mph 1016.6mb 36f
3:24 23 29 mph 1016.4mb 37f
3:18 22 28 mph 1016.3mb 37f
3:12 23 31 mph 1016.2mb 37f
3:06 25 31 mph 1016.1mb 36f
3:00 25 31 mph 1016mb 36f
2:54 22 26 mph 1016mb 37f
2:48 22 30 mph 1016mb 37f
2:42 22 26 mph 1015.9mb 37f
2:36 18 26 mph 1015.9mb 37f
2:30 25 30 mph 1015.7mb 37f
2:24 21 29 mph 1015.6mb 37f
2:18 22 30 mph 1015.6mb 38f
2:12 18 26 mph 1015.6mb 38f
2:06 22 25 mph 1015.5mb 38f
2:00 23 29 mph 1015.5mb 38f
1:54 17 23 mph 1015.5mb 38f
1:48 24 33 mph 1015.3mb 38f
1:42 25 31 mph 1015.2mb 38f
1:36 21 25 mph 1015.2mb 38f
1:30 22 25 mph 1015.1mb 38f
1:24 23 30 mph 1015.1mb 38f
1:18 23 30 mph 1015.1mb 37f
1:12 22 30 mph 1015mb 38f
1:06 24 32 mph 1015mb 38f
1:00 28 33 mph 1014.8mb 37f
12:54 18 25 mph 1014.9mb 38f
12:48 20 28 mph 1014.8mb 37f
12:42 22 31 mph 1014.8mb 38f
12:36 23 28 mph 1014.7mb 36f
12:30 25 29 mph 1014.7mb 36f
12:24 23 28 mph 1014.8mb 37f
12:18 24 29 mph 1014.8mb 36f
12:12 25 31 mph 1014.8mb 37f
12:06 23 29 mph 1015mb 37f
12:00 18 26 mph 1015.1mb 37f
11:54 20 24 mph 1015.1mb 37f
11:48 22 28 mph 1015.2mb 37f
11:42 22 26 mph 1015.3mb 37f
11:36 23 29 mph 1015.2mb 36f
11:30 20 26 mph 1015.4mb 37f
11:24 23 28 mph 1015.4mb 38f
11:18 20 26 mph 1015.5mb 38f
11:12 20 24 mph 1015.5mb 37f
11:06 18 25 mph 1015.6mb 37f
11:00 18 25 mph 1015.6mb 37f
10:54 21 24 mph 1015.6mb 37f
10:48 21 26 mph 1015.5mb 37f
10:42 22 31 mph 1015.5mb 37f
10:36 25 30 mph 1015.5mb 36f
10:30 22 26 mph 1015.7mb 37f
10:24 22 30 mph 1015.8mb 37f
10:18 23 30 mph 1015.7mb 36f
10:12 22 28 mph 1015.7mb 36f
10:06 21 28 mph 1015.6mb 37f
10:00 23 28 mph 1015.6mb 37f
9:54 23 30 mph 1015.7mb 37f
9:48 23 29 mph 1015.7mb 37f
9:42 25 32 mph 1015.6mb 36f
9:36 23 30 mph 1015.5mb 35f
9:30 21 28 mph 1015.4mb 35f
9:24 21 26 mph 1015.3mb 35f
9:18 23 33 mph 1015.4mb 35f
9:12 23 29 mph 1015.3mb 35f
9:06 16 22 mph 1015.4mb 35f
9:00 16 24 mph 1015.3mb 35f
8:54 15 20 mph 1015.2mb 35f
8:48 17 24 mph 1015.2mb 35f
8:42 14 16 mph 1015.1mb 35f
8:36 17 21 mph 1015mb 35f
8:30 16 21 mph 1014.9mb 34f
8:24 20 24 mph 1014.7mb 34f
8:18 16 22 mph 1014.7mb 34f
8:12 18 22 mph 1014.6mb 34f
8:06 21 24 mph 1014.6mb 34f
8:00 18 25 mph 1014.5mb 34f
7:54 20 23 mph 1014.5mb 34f
7:48 21 24 mph 1014.4mb 34f
7:42 18 21 mph 1014.4mb 34f
7:36 21 24 mph 1014.4mb 34f
7:30 20 24 mph 1014.2mb 34f
7:24 18 23 mph 1014.2mb 34f
7:18 21 25 mph 1014mb 34f
7:12 18 23 mph 1014.1mb 35f
7:06 20 25 mph 1013.8mb 34f
7:00 21 23 mph 1013.6mb 35f
6:54 21 24 mph 1013.7mb 34f
6:48 21 25 mph 1013.6mb 34f
6:42 22 25 mph 1013.5mb 34f
6:36 21 24 mph 1013.5mb 34f
6:30 22 28 mph 1013.1mb 34f
6:24 23 28 mph 1013.2mb 35f
6:18 22 26 mph 1013.2mb 35f
6:12 22 29 mph 1013.1mb 35f
6:06 21 24 mph 1013.1mb 35f
6:00 22 26 mph 1013.1mb 35f
5:54 21 24 mph 1013.2mb 35f
5:48 21 26 mph 1013.3mb 35f
5:42 22 28 mph 1013.2mb 35f
5:36 23 29 mph 1013.2mb 34f
5:30 21 26 mph 1013.1mb 35f
5:24 23 28 mph 1012.9mb 35f
5:18 23 29 mph 1012.9mb 35f
5:12 24 30 mph 1012.8mb 35f
5:06 25 30 mph 1012.8mb 35f
5:00 24 29 mph 1012.8mb 35f
4:54 23 26 mph 1012.8mb 35f
4:48 22 30 mph 1012.8mb 35f
4:42 22 25 mph 1012.7mb 35f
4:36 24 28 mph 1012.7mb 35f
4:30 22 28 mph 1012.7mb 35f
4:24 23 29 mph 1012.6mb 35f
4:18 23 29 mph 1012.6mb 35f
4:12 23 28 mph 1012.5mb 35f
4:06 22 29 mph 1012.4mb 35f
4:00 22 26 mph 1012.3mb 35f
3:54 22 29 mph 1012.4mb 36f
3:48 21 26 mph 1012.3mb 36f
3:42 22 28 mph 1012.4mb 35f
3:36 21 26 mph 1012.4mb 36f
3:30 23 25 mph 1012.4mb 35f
3:24 22 28 mph 1012.5mb 35f
3:18 20 23 mph 1012.5mb 35f
3:12 21 24 mph 1012.5mb 35f
3:06 20 24 mph 1012.5mb 35f
3:00 18 22 mph 1012.6mb 35f
2:54 18 22 mph 1012.6mb 36f
2:48 20 25 mph 1012.5mb 36f
2:42 22 25 mph 1012.4mb 36f
2:36 20 24 mph 1012.4mb 35f
2:30 21 23 mph 1012.3mb 36f
2:24 21 26 mph 1012.3mb 36f
2:18 20 23 mph 1012.2mb 36f
2:12 21 25 mph 1012.2mb 36f
2:06 20 23 mph 1012.2mb 36f
2:00 21 25 mph 1012.1mb 36f
1:54 20 25 mph 1012.1mb 36f
1:48 21 25 mph 1012mb 36f
1:42 20 22 mph 1012mb 36f
1:36 18 22 mph 1012mb 36f
1:30 18 23 mph 1012mb 36f
1:24 20 22 mph 1011.9mb 36f
1:18 16 21 mph 1011.9mb 36f
1:12 18 22 mph 1011.9mb 36f
1:06 18 23 mph 1011.9mb 36f
1:00 17 21 mph 1011.9mb 36f
12:54 20 22 mph 1011.8mb 37f
12:48 22 26 mph 1011.8mb -
12:42 22 25 mph 1011.7mb -
12:36 22 26 mph 1011.6mb -
12:30 23 29 mph 1011.6mb 37f
12:24 24 32 mph 1011.4mb 37f
12:18 22 26 mph 1011.4mb 37f
12:12 20 23 mph 1011.5mb 37f
12:06 18 21 mph 1011.5mb 37f
12:00 18 22 mph 1011.6mb 37f
jeu. 12/08 11:54 18 23 mph 1011.6mb 37f
11:48 16 20 mph 1011.7mb 37f
11:42 20 26 mph 1011.7mb 37f
11:36 21 26 mph 1011.7mb 37f
11:30 17 22 mph 1011.9mb 37f
11:24 20 24 mph 1011.8mb 37f
11:18 17 21 mph 1011.8mb 37f
11:12 16 21 mph 1011.9mb 37f
11:06 17 25 mph 1011.9mb 37f
11:00 16 18 mph 1012mb 37f
10:54 17 22 mph 1012.1mb 37f
10:48 16 21 mph 1012.1mb 37f
10:42 15 18 mph 1012.1mb 38f
10:36 15 20 mph 1012mb 37f
10:30 15 21 mph 1011.9mb 38f
10:24 17 22 mph 1011.8mb 38f
10:18 17 20 mph 1011.7mb 38f
10:12 14 16 mph 1011.7mb 38f
10:06 13 15 mph 1011.7mb 38f
10:00 11 13 mph 1011.5mb 38f
9:54 13 16 mph 1011.5mb 38f
9:48 14 18 mph 1011.5mb 38f
9:42 13 18 mph 1011.5mb 38f
9:36 13 16 mph 1011.5mb 38f
9:30 14 23 mph 1011.4mb 38f
9:24 15 21 mph 1011.4mb 38f
9:18 13 20 mph 1011.4mb 39f
9:12 11 14 mph 1011.4mb 38f
9:06 13 16 mph 1011.4mb 38f
9:00 13 15 mph 1011.3mb 39f
8:54 10 15 mph 1011.3mb 39f
8:48 11 15 mph 1011.3mb 39f
8:42 9 13 mph 1011.3mb 39f
8:36 11 16 mph 1011.3mb 39f
8:30 11 16 mph 1011.3mb 39f
8:24 13 15 mph 1011.2mb 39f
8:18 11 16 mph 1011.2mb 39f
8:12 11 14 mph 1011.2mb 39f
8:06 11 16 mph 1011.2mb 40f
8:00 14 18 mph 1011.1mb 40f
7:54 10 13 mph 1011.1mb 40f
7:48 13 15 mph 1011.1mb 40f
7:42 13 16 mph 1011.1mb 40f
7:36 14 16 mph 1011.1mb 40f
7:30 13 15 mph 1011mb 40f
7:24 14 15 mph 1011mb 40f
7:18 14 16 mph 1011mb 41f
7:12 13 15 mph 1011mb 41f
7:06 16 18 mph 1011mb 41f
7:00 16 21 mph 1010.9mb 41f
6:54 17 22 mph 1010.9mb 41f
6:48 20 22 mph 1010.8mb 41f
6:42 18 22 mph 1010.8mb 42f
6:36 18 24 mph 1010.7mb 42f
6:30 17 20 mph 1010.5mb 42f
6:24 15 18 mph 1010.5mb 42f
6:18 14 16 mph 1010.5mb 42f
6:12 11 15 mph 1010.5mb 42f
6:06 14 15 mph 1010.5mb 42f
6:00 10 14 mph 1010.5mb 42f
5:54 10 14 mph 1010.5mb 42f
5:48 9 10 mph 1010.5mb 42f
5:42 13 14 mph 1010.4mb 42f
5:36 13 16 mph 1010.4mb 42f
5:30 14 16 mph 1010.3mb 42f
5:24 13 15 mph 1010.4mb 42f
5:18 13 15 mph 1010.3mb 42f
5:12 11 14 mph 1010.3mb 42f
5:06 13 15 mph 1010.2mb 42f
5:00 14 15 mph 1010.2mb 42f
4:54 13 15 mph 1010.2mb 42f
4:48 13 15 mph 1010.1mb 42f
4:42 13 14 mph 1010.1mb 42f
4:36 14 16 mph 1010mb 42f
4:30 14 16 mph 1010mb 42f
4:24 13 16 mph 1010mb 42f
4:18 16 18 mph 1010mb 43f
4:12 15 17 mph 1010mb 43f
4:06 16 21 mph 1009.9mb 42f
4:00 15 18 mph 1009.8mb 43f
3:54 17 20 mph 1009.9mb 43f
3:48 16 20 mph 1009.9mb 43f
3:42 15 18 mph 1009.8mb 43f
3:36 14 16 mph 1009.8mb 43f
3:30 15 17 mph 1009.8mb 43f
3:24 15 18 mph 1009.8mb 43f
3:18 14 16 mph 1009.8mb 43f
3:12 14 16 mph 1009.7mb 43f
3:06 13 14 mph 1009.7mb 43f
3:00 13 14 mph 1009.6mb 43f
2:54 14 15 mph 1009.7mb 43f
2:48 14 15 mph 1009.7mb 43f
2:42 14 16 mph 1009.7mb 43f
2:36 14 17 mph 1009.6mb 43f
2:30 13 14 mph 1009.6mb 43f
2:24 11 14 mph 1009.6mb 43f
2:18 11 13 mph 1009.6mb 43f
2:12 13 15 mph 1009.6mb 43f
2:06 11 14 mph 1009.6mb 43f
2:00 8 10 mph 1009.4mb 43f
1:54 9 11 mph 1009.5mb 43f
1:48 11 14 mph 1009.5mb 43f
1:42 15 17 mph 1009.6mb 43f
1:36 15 18 mph 1009.6mb 43f
1:30 15 21 mph 1009.6mb 43f
1:24 14 17 mph 1009.7mb 43f
1:18 14 15 mph 1009.7mb 43f
1:12 13 14 mph 1009.7mb 44f
1:06 11 14 mph 1009.7mb 43f
1:00 11 13 mph 1009.7mb 44f
12:54 13 14 mph 1009.8mb 44f
12:48 11 14 mph 1009.8mb 44f
12:42 11 15 mph 1009.9mb 43f
12:36 9 10 mph 1010mb 43f
12:30 9 11 mph 1010.1mb 43f
12:24 7 8 mph 1010.1mb 43f
12:18 6 7 mph 1010.1mb 43f
12:12 7 8 mph 1010.3mb 43f
12:06 7 8 mph 1010.4mb 43f
12:00 6 7 mph 1010.7mb 43f
11:54 6 8 mph 1010.8mb 43f
11:48 6 8 mph 1011.1mb 43f
11:42 6 7 mph 1011.3mb 43f
11:36 7 8 mph 1011.4mb 43f
11:30 8 9 mph 1011.6mb 42f
11:24 9 10 mph 1011.8mb 43f
11:18 10 11 mph 1012mb 43f
11:12 9 10 mph 1011.9mb 42f
11:06 9 10 mph 1012.1mb 43f
11:00 10 13 mph 1012.3mb 43f
10:54 14 16 mph 1012.5mb 43f
10:48 11 14 mph 1012.6mb 43f
10:42 13 15 mph 1012.8mb 43f
10:36 13 15 mph 1012.9mb 42f
10:30 14 15 mph 1013.1mb 43f
10:24 13 14 mph 1013.1mb 43f
10:18 9 10 mph 1013.1mb 43f
10:12 5 6 mph 1013.3mb 42f
10:06 6 7 mph 1013.5mb 42f
10:00 6 7 mph 1013.5mb 42f
9:54 6 7 mph 1013.6mb 42f
9:48 6 7 mph 1013.8mb 42f
9:42 5 6 mph 1013.8mb 42f
9:36 5 6 mph 1013.8mb 42f
9:30 5 7 mph 1013.9mb 42f
9:24 6 7 mph 1013.9mb 42f
9:18 6 7 mph 1013.9mb 42f
9:12 7 8 mph 1013.9mb 41f
9:06 7 8 mph 1014mb 41f
9:00 7 8 mph 1014.1mb 41f
8:54 7 8 mph 1014mb 41f
8:48 7 8 mph 1014mb 41f
8:42 7
mph
1014.1mb 41f
8:36 7 9 mph 1014.1mb 41f
8:30 8
mph
1014mb 41f
8:24 8 10 mph 1014.1mb 42f
8:18 9 10 mph 1014mb 41f
8:12 9 10 mph 1014.1mb 41f
8:06 9 10 mph 1014.1mb 41f
8:00 5 10 mph 1014.2mb 40f
7:54  -  2 mph 1014.2mb 40f
7:48  -  2 mph 1014mb 40f
7:42 1 2 mph 1014mb 40f
7:36 2
mph
1014mb 39f
7:30 1 2 mph 1014.2mb 39f
7:24  -  1 mph 1014.4mb 39f
7:18  -  2 mph 1014.5mb 39f
7:12  -  1 mph 1014.4mb 39f
7:06 1 2 mph 1014.4mb 39f
7:00  -  1 mph 1014.5mb 39f
6:54 1 2 mph 1014.5mb 39f
6:48 1
mph
1014.6mb 39f
6:42 2 3 mph 1014.5mb 40f
6:36 3
mph
1014.5mb 39f
6:30 2 3 mph 1014.5mb 40f
6:24 2 3 mph 1014.5mb 40f
6:18 2 5 mph 1014.4mb 40f
6:12 3 5 mph 1014.4mb 40f
6:06 3 5 mph 1014.4mb 40f
6:00 3 5 mph 1014.4mb 40f
5:54 3 5 mph 1014.4mb 40f
5:48 5
mph
1014.4mb 40f
5:42 6
mph
1014.5mb 40f
5:36 5 6 mph 1014.6mb 40f
5:30 3 5 mph 1014.7mb 40f
5:24 3 5 mph 1014.8mb 40f
5:18 2 5 mph 1014.9mb 40f
5:12 2 3 mph 1014.9mb 40f
5:06 2
mph
1015mb 39f
5:00  -  1 mph 1015mb 39f
4:54 2 3 mph 1015.1mb 39f
4:48 3 5 mph 1015.2mb 39f
4:42 5 6 mph 1015.3mb 40f
4:36 5 6 mph 1015.2mb 40f
4:30 6
mph
1015.2mb 40f
4:24 6 7 mph 1015.2mb 40f
4:18 6 7 mph 1015mb 40f
4:12 5 6 mph 1015mb 40f
4:06 3 5 mph 1014.8mb 40f
4:00 2 3 mph 1014.8mb 40f
3:54 2
mph
1014.9mb 40f
3:48 3 5 mph 1015mb 40f
3:42 3 5 mph 1014.9mb 40f
3:36 2 3 mph 1014.9mb 40f
3:30 1 2 mph 1014.9mb 40f
3:24  -  1 mph 1014.8mb 40f
3:18 1 3 mph 1014.8mb 40f
3:12 1 2 mph 1014.9mb 40f
3:06 1 2 mph 1014.9mb 40f
3:00 2 3 mph 1015mb 40f
2:54 2 3 mph 1015.1mb 40f
2:48 2 3 mph 1015.2mb 40f
2:42 2 3 mph 1015.2mb 40f
2:36 3 5 mph 1015.2mb 40f
2:30 5 6 mph 1015.3mb 40f
2:24 5 6 mph 1015.4mb 40f
2:18 5 6 mph 1015.3mb 40f
2:12 5 6 mph 1015.3mb 41f
2:06 5 6 mph 1015.3mb 41f
2:00 7 8 mph 1015.5mb 41f
1:54 7 8 mph 1015.5mb 41f
1:48 7 8 mph 1015.5mb -
1:42 7 9 mph 1015.5mb -
1:36 8 9 mph 1015.4mb -
1:30 8 9 mph 1015.5mb 41f
1:24 7 9 mph 1015.6mb 41f
1:18 6 8 mph 1015.5mb 41f
1:12 6 8 mph 1015.6mb 41f
1:06 6 7 mph 1015.8mb 41f
1:00 6 8 mph 1015.9mb 41f
12:54 6 8 mph 1016mb 41f
12:48 8 9 mph 1016.1mb -
12:42 6 7 mph 1015.8mb -
12:36 6
mph
1015.7mb -
12:30 6
mph
1015.7mb 42f
12:24 5 6 mph 1015.6mb 42f
12:18 5 6 mph 1015.5mb 42f
12:12 5 6 mph 1015.5mb 41f
12:06 3 5 mph 1015.5mb 41f
12:00 3
mph
1015.4mb 42f
mer. 12/07 11:54 5 6 mph 1015.6mb 42f
11:48 3
mph
1015.5mb 42f
11:42 3 5 mph 1015.6mb 42f
11:36 3 5 mph 1015.6mb 42f
11:30 5
mph
1015.7mb 42f
11:24 3 5 mph 1015.9mb 42f
11:18 3 5 mph 1016mb 41f
11:12 3
mph
1015.9mb 41f
11:06 2 3 mph 1016mb 42f
11:00 2
mph
1016.1mb 42f
10:54 3
mph
1016.2mb 42f
10:48 2 3 mph 1016.3mb 42f
10:42 3
mph
1016.3mb 42f
10:36 2 3 mph 1016.4mb 42f
10:30  -  2 mph 1016.4mb 42f
10:24  -  mph 1016.5mb 42f
10:18 1
mph
1016.4mb 42f
10:12  -  1 mph 1016.3mb 42f
10:06  -  2 mph 1016.2mb 42f
10:00  -  1 mph 1016.2mb 42f
9:54  -  2 mph 1016.2mb 42f
9:48  -  mph 1016.2mb 42f
9:42  -  1 mph 1016.4mb 43f
9:36 2
mph
1016.5mb 43f
9:30  -  1 mph 1016.5mb 43f
9:24  -  1 mph 1016.4mb 43f
9:18 2 3 mph 1016.6mb 43f
9:12 3 5 mph 1016.6mb 43f
9:06 5 6 mph 1016.7mb 43f
9:00 3 5 mph 1016.6mb 43f
8:54 3 5 mph 1016.7mb 43f
8:48 3 5 mph 1016.7mb 43f
8:42 2 3 mph 1016.6mb 43f
8:36 2 3 mph 1016.6mb 43f
8:30  -  1 mph 1016.7mb 43f
8:24 1 2 mph 1016.8mb 43f
8:18 3 5 mph 1016.9mb 43f
8:12 2 3 mph 1017mb 43f
8:06 2 5 mph 1016.9mb 43f
8:00 1 2 mph 1016.5mb 42f
7:54 1 2 mph 1016.5mb 43f
7:48 2
mph
1016.6mb 43f
7:42 2 3 mph 1016.7mb 43f
7:36 3 5 mph 1016.8mb 43f
7:30 3 5 mph 1016.8mb 43f
7:24 1 2 mph 1016.7mb 43f
7:18 1 2 mph 1016.8mb 43f
7:12  -  mph 1016.8mb 43f
7:06  -  mph 1016.8mb 43f
7:00  -  mph 1016.8mb 43f
6:54  -  mph 1016.7mb 43f
6:48  -  1 mph 1016.8mb 43f
6:42 1 2 mph 1016.8mb 43f
6:36  -  mph 1016.7mb 43f
6:30  -  1 mph 1016.7mb 43f
6:24  -  2 mph 1016.7mb 43f
6:18  -  mph 1016.8mb 43f
6:12  -  1 mph 1016.8mb 43f
6:06 2 3 mph 1016.7mb 43f
6:00 2 3 mph 1016.7mb 43f
5:54 2
mph
1016.6mb 43f
5:48  -  1 mph 1016.5mb 43f
5:42 1
mph
1016.3mb 43f
5:36 1
mph
1016.2mb 43f
5:30 2 3 mph 1016.1mb 43f
5:24 3 5 mph 1016mb 43f
5:18 2 3 mph 1015.9mb 43f
5:12 2
mph
1015.9mb 43f
5:06 2 3 mph 1015.9mb 43f
5:00 2 3 mph 1015.8mb 43f
4:54 2
mph
1015.7mb 43f
4:48 2
mph
1015.6mb 43f
4:42 1 2 mph 1015.6mb 43f
4:36 2
mph
1015.6mb 43f
4:30 2
mph
1015.6mb 43f
4:24 2
mph
1015.5mb 43f
4:18 3
mph
1015.4mb 43f
4:12 3
mph
1015.3mb 43f
4:06 2 3 mph 1015.3mb 43f
4:00 3 5 mph 1015.4mb 43f
3:54 1 2 mph 1015.3mb 43f
3:48  -  mph 1015.2mb 43f
3:42  -  mph 1015.1mb 43f
3:36  -  mph 1015mb 43f
3:30  -  1 mph 1014.9mb 43f
3:24 1 2 mph 1014.9mb 43f
3:18  -  mph 1014.7mb 43f
3:12  -  1 mph 1014.8mb 43f
3:06 2
mph
1014.7mb 43f
3:00 2 3 mph 1014.9mb 43f
2:54 3 5 mph 1014.8mb 43f
2:48 3 5 mph 1014.6mb 43f
2:42 2 3 mph 1014.4mb 43f
2:36 2 3 mph 1014.3mb 43f
2:30 1 2 mph 1014.2mb 43f
2:24  -  mph 1014mb 43f
2:18  -  2 mph 1014.2mb 43f
2:12 2 3 mph 1014.2mb 43f
2:06  -  1 mph 1014.3mb 43f
2:00  -  1 mph 1014.3mb 43f
1:54  -  1 mph 1014.4mb 43f
1:48  -  2 mph 1014.3mb 44f
1:42 2 3 mph 1014.2mb 44f
1:36 3 6 mph 1014.1mb 44f
1:30 3 5 mph 1014mb 44f
1:24 5
mph
1014mb 44f
1:18 5
mph
1014mb 44f
1:12 3 5 mph 1014mb 44f
1:06 3 5 mph 1014.2mb 44f
1:00 5 6 mph 1014.2mb 44f
12:54 5 6 mph 1014.3mb 44f
12:48 5 6 mph 1014.3mb 44f
12:42 5
mph
1014.4mb 44f
12:36 3 5 mph 1014.4mb 43f
12:30 2 3 mph 1014.5mb 43f
12:24 2 3 mph 1014.5mb 43f
12:18 5
mph
1014.5mb 43f
12:12 2 3 mph 1014.6mb 43f
12:06 3
mph
1014.7mb 43f
12:00 2 3 mph 1014.9mb 42f
11:54 2
mph
1015mb 42f
11:48 2 3 mph 1015mb 42f
11:42 3
mph
1015.1mb 42f
11:36 3 5 mph 1015.2mb 42f
11:30 3
mph
1015.4mb 42f
11:24 2 3 mph 1015.4mb 42f
11:18 2
mph
1015.5mb 42f
11:12 2 3 mph 1015.4mb 42f
11:06 3
mph
1015.3mb 41f
11:00 3
mph
1015.5mb 41f
10:54 3 6 mph 1015.7mb 41f
10:48 3 5 mph 1015.7mb 41f
10:42 5 6 mph 1015.7mb 41f
10:36 3 5 mph 1015.9mb 41f